createdAt,value
2016-05-02T15:28:04.018Z,32.33
2016-05-02T15:29:03.990Z,32.14
2016-05-02T15:30:04.008Z,32.33
2016-05-02T15:34:05.489Z,32.62
2016-05-02T15:35:05.506Z,32.14
2016-05-02T15:36:05.383Z,31.46
2016-05-02T15:37:06.589Z,31.08
2016-05-02T15:38:05.577Z,30.6
2016-05-02T15:39:05.595Z,31.08
2016-05-02T15:40:05.630Z,30.31
2016-05-02T15:41:05.632Z,30.31
2016-05-02T15:42:05.665Z,30.31
2016-05-02T15:43:05.683Z,30.32
2016-05-02T15:44:05.702Z,31.57
2016-05-02T15:45:05.736Z,31.87
2016-05-02T15:46:05.754Z,31.48
2016-05-02T15:47:05.773Z,31.19
2016-05-02T15:48:05.807Z,31.96
2016-05-02T15:49:05.669Z,31.67
2016-05-02T15:50:05.687Z,31.29
2016-05-02T15:51:05.893Z,31.38
2016-05-02T15:52:05.926Z,31.57
2016-05-02T15:53:05.930Z,31.48
2016-05-02T15:54:05.932Z,31.4
2016-05-02T15:55:12.215Z,31.09
2016-05-02T15:56:06.140Z,31.59
2016-05-02T15:57:06.003Z,30.73
2016-05-02T15:58:06.053Z,31.01
2016-05-02T15:59:06.056Z,32.26
2016-05-02T16:00:06.214Z,32.36
2016-05-02T16:01:06.107Z,31.78
2016-05-02T16:02:05.969Z,32.17
2016-05-02T16:03:06.160Z,31.78
2016-05-02T20:07:08.102Z,36.54
2016-05-02T20:09:26.888Z,35.77
2016-05-02T20:10:27.063Z,36.64
2016-05-02T20:11:27.082Z,36.83
2016-05-02T20:12:26.944Z,35.87
2016-05-02T20:13:27.149Z,36.27
2016-05-02T20:14:27.012Z,36.56
2016-05-02T20:15:27.171Z,36.85
2016-05-02T20:16:27.189Z,36.47
2016-05-02T20:17:27.176Z,35.7
2016-05-02T20:18:34.945Z,36.56
2016-05-02T20:19:27.276Z,35.99
2016-05-02T20:20:27.293Z,36.56
2016-05-02T20:21:27.327Z,35.89
2016-05-02T20:22:27.362Z,35.7
2016-05-02T20:23:27.364Z,35.99
2016-05-02T20:24:27.224Z,35.7
2016-05-02T20:25:27.228Z,35.89
2016-05-02T20:26:27.418Z,35.89
2016-05-02T20:27:27.280Z,36.08
2016-05-02T20:28:27.345Z,35.79
2016-05-02T20:29:27.349Z,35.79
2016-05-02T20:30:27.507Z,35.99
2016-05-02T20:31:27.509Z,35.99
2016-05-02T20:32:27.528Z,35.99
2016-05-02T20:33:27.562Z,35.99
2016-05-02T20:34:27.440Z,35.79
2016-05-02T20:35:27.615Z,35.79
2016-05-02T20:36:27.664Z,35.99
2016-05-02T20:37:27.682Z,36.37
2016-05-02T20:38:27.701Z,36.47
2016-05-02T20:39:27.703Z,36.18
2016-05-02T20:40:27.565Z,36.27
2016-05-02T20:41:27.599Z,36.56
2016-05-02T20:42:27.773Z,36.27
